createdAt,value
2019-05-11T00:01:29.474Z,100797.34
2019-05-11T00:04:00.350Z,100794.30
2019-05-11T00:06:31.411Z,100795.56
2019-05-11T00:09:02.363Z,100804.53
2019-05-11T00:11:33.426Z,100807.58
2019-05-11T00:14:04.081Z,100806.69
2019-05-11T00:16:34.918Z,100807.08
2019-05-11T00:19:05.995Z,100805.30
2019-05-11T00:21:36.961Z,100804.40
2019-05-11T00:24:08.014Z,100808.06
2019-05-11T00:26:39.175Z,100806.05
2019-05-11T00:29:10.222Z,100806.31
2019-05-11T00:31:41.199Z,100814.50
2019-05-11T00:34:12.054Z,100812.73
2019-05-11T00:36:43.114Z,100814.89
2019-05-11T00:39:14.075Z,100815.88
2019-05-11T00:41:44.926Z,100816.12
2019-05-11T00:44:15.977Z,100820.68
2019-05-11T00:46:46.946Z,100814.59
2019-05-11T00:49:18.109Z,100818.77
2019-05-11T00:51:49.069Z,100817.50
2019-05-11T00:54:20.112Z,100819.78
2019-05-11T00:56:51.085Z,100821.67
2019-05-11T00:59:22.233Z,100820.91
2019-05-11T01:01:53.088Z,100822.30
2019-05-11T01:04:24.167Z,100821.05
2019-05-11T01:06:55.108Z,100821.80
2019-05-11T01:09:26.087Z,100820.68
2019-05-11T01:11:56.920Z,100817.14
2019-05-11T01:14:27.898Z,100823.82
2019-05-11T01:16:58.867Z,100827.63
2019-05-11T01:19:29.712Z,100831.03
2019-05-11T01:22:00.652Z,100835.95
2019-05-11T01:24:31.629Z,100834.80
2019-05-11T01:27:02.488Z,100836.87
2019-05-11T01:29:33.544Z,100833.34
2019-05-11T01:32:04.092Z,100827.26
2019-05-11T01:34:35.056Z,100832.31
2019-05-11T01:37:05.993Z,100828.02
2019-05-11T01:39:36.956Z,100835.09
2019-05-11T01:42:07.826Z,100831.69
2019-05-11T01:44:38.874Z,100827.52
2019-05-11T01:47:09.846Z,100830.80
2019-05-11T01:49:40.911Z,100822.83
2019-05-11T01:52:11.745Z,100827.00
2019-05-11T01:54:42.622Z,100827.72
2019-05-11T01:57:13.679Z,100828.97
2019-05-11T01:59:44.639Z,100823.41
2019-05-11T02:02:15.695Z,100833.52
2019-05-11T02:04:48.294Z,100828.59
2019-05-11T02:07:19.438Z,100834.23
2019-05-11T02:09:50.413Z,100833.98
2019-05-11T02:12:21.358Z,100832.06
2019-05-11T02:14:52.431Z,100827.25
2019-05-11T02:17:23.286Z,100832.43
2019-05-11T02:19:54.348Z,100829.52
2019-05-11T02:22:25.322Z,100837.06
2019-05-11T02:24:56.266Z,100842.34
2019-05-11T02:27:27.327Z,100837.58
2019-05-11T02:29:58.390Z,100847.80
2019-05-11T02:32:29.329Z,100846.09
2019-05-11T02:35:00.405Z,100837.68
2019-05-11T02:37:31.470Z,100837.16
2019-05-11T02:40:02.426Z,100842.37
2019-05-11T02:42:33.414Z,100844.29
2019-05-11T02:45:06.109Z,100847.83
2019-05-11T02:47:36.736Z,100839.36
2019-05-11T02:50:07.791Z,100841.38
2019-05-11T02:52:39.519Z,100836.31
2019-05-11T02:55:10.752Z,100837.31
2019-05-11T02:57:41.269Z,100842.01
2019-05-11T03:00:12.492Z,100842.56
2019-05-11T03:02:43.076Z,100846.68
2019-05-11T03:05:14.060Z,100852.14
2019-05-11T03:07:44.919Z,100856.83
2019-05-11T03:10:16.071Z,100863.25
2019-05-11T03:12:46.912Z,100860.78
2019-05-11T03:15:17.890Z,100858.13
2019-05-11T03:17:48.828Z,100870.99
2019-05-11T03:20:19.918Z,100867.23
2019-05-11T03:22:50.865Z,100869.86
2019-05-11T03:25:21.823Z,100864.70
2019-05-11T03:27:52.779Z,100872.36
2019-05-11T03:30:24.068Z,100871.94
2019-05-11T03:32:54.909Z,100867.27
2019-05-11T03:35:25.863Z,100874.19
2019-05-11T03:37:56.922Z,100879.07
2019-05-11T03:40:27.760Z,100874.27
2019-05-11T03:42:58.923Z,100878.64
2019-05-11T03:45:29.879Z,100869.33
2019-05-11T03:48:00.957Z,100877.64
2019-05-11T03:50:31.903Z,100879.16
2019-05-11T03:53:02.783Z,100880.48
2019-05-11T03:55:33.733Z,100885.64
2019-05-11T03:58:04.689Z,100884.86
2019-05-11T04:00:35.731Z,100884.71
2019-05-11T04:03:06.712Z,100881.31
2019-05-11T04:05:37.556Z,100888.34
2019-05-11T04:08:08.526Z,100894.22
2019-05-11T04:10:39.481Z,100892.52
2019-05-11T04:13:10.341Z,100894.02
2019-05-11T04:15:41.381Z,100897.77
2019-05-11T04:18:12.356Z,100896.01
2019-05-11T04:20:43.399Z,100894.95
2019-05-11T04:23:14.479Z,100906.18
2019-05-11T04:25:45.641Z,100906.51
2019-05-11T04:28:16.708Z,100908.09
2019-05-11T04:30:47.661Z,100916.14
2019-05-11T04:33:18.608Z,100915.32
2019-05-11T04:35:49.563Z,100914.23
2019-05-11T04:38:20.516Z,100912.93
2019-05-11T04:40:51.642Z,100908.59
2019-05-11T04:43:22.549Z,100910.48
2019-05-11T04:45:53.690Z,100923.56
2019-05-11T04:48:24.779Z,100919.09
2019-05-11T04:50:55.822Z,100918.11
2019-05-11T04:53:26.795Z,100924.53
2019-05-11T04:55:57.650Z,100928.61
2019-05-11T04:58:28.711Z,100932.33
2019-05-11T05:00:59.664Z,100924.55
2019-05-11T05:03:40.228Z,100924.20
2019-05-11T05:06:21.296Z,100936.34
2019-05-11T05:08:35.103Z,100935.84
2019-05-11T05:11:06.060Z,100938.73
2019-05-11T05:13:36.917Z,100936.36
2019-05-11T05:16:07.979Z,100941.85
2019-05-11T05:18:38.936Z,100945.87
2019-05-11T05:21:10.098Z,100953.22
2019-05-11T05:23:40.938Z,100955.93
2019-05-11T05:26:11.913Z,100959.91
2019-05-11T05:28:45.718Z,100960.71
2019-05-11T05:31:15.671Z,100973.21
2019-05-11T05:33:46.527Z,100962.08
2019-05-11T05:36:17.568Z,100969.69
2019-05-11T05:38:48.549Z,100970.78
2019-05-11T05:41:19.611Z,100973.59
2019-05-11T05:43:50.446Z,100980.03
2019-05-11T05:46:21.303Z,100972.41
2019-05-11T05:48:53.306Z,100983.45
2019-05-11T05:51:24.463Z,100978.59
2019-05-11T05:53:55.329Z,100980.55
2019-05-11T05:56:26.442Z,100970.73
2019-05-11T05:58:57.319Z,100980.55
2019-05-11T06:01:28.381Z,100982.36
2019-05-11T06:03:59.236Z,100984.09
2019-05-11T06:06:30.108Z,100988.31
2019-05-11T06:09:01.072Z,100987.02
2019-05-11T06:11:32.013Z,100992.63
2019-05-11T06:14:02.770Z,100985.92
2019-05-11T06:16:33.839Z,100987.55
2019-05-11T06:19:04.798Z,100987.64
2019-05-11T06:21:35.654Z,100983.88
2019-05-11T06:24:08.350Z,100986.57
2019-05-11T06:26:39.110Z,100986.89
2019-05-11T06:29:10.048Z,100994.40
2019-05-11T06:31:41.013Z,100994.73
2019-05-11T06:34:11.876Z,100991.57
2019-05-11T06:36:46.119Z,100996.88
2019-05-11T06:39:21.645Z,100998.69
2019-05-11T06:41:56.302Z,101000.28
2019-05-11T06:44:29.005Z,101000.95
2019-05-11T06:47:04.220Z,100997.97
2019-05-11T06:49:35.253Z,100993.97
2019-05-11T06:52:06.163Z,100988.19
2019-05-11T06:54:37.239Z,100989.21
2019-05-11T06:57:08.194Z,100993.85
2019-05-11T06:59:39.052Z,100993.08
2019-05-11T07:02:10.217Z,101001.09
2019-05-11T07:04:41.171Z,100992.10
2019-05-11T07:07:12.237Z,100996.64
2019-05-11T07:09:43.072Z,100996.81
2019-05-11T07:12:14.026Z,100997.53
2019-05-11T07:14:45.605Z,100999.11
2019-05-11T07:17:16.376Z,101004.16
2019-05-11T07:19:47.789Z,100997.67
2019-05-11T07:22:18.907Z,100996.78
2019-05-11T07:24:50.010Z,100999.06
2019-05-11T07:27:21.128Z,100995.81
2019-05-11T07:29:52.068Z,100998.67
2019-05-11T07:32:26.059Z,100993.41
2019-05-11T07:34:57.629Z,100989.42
2019-05-11T07:37:28.140Z,100998.77
2019-05-11T07:39:58.988Z,100997.05
2019-05-11T07:42:30.058Z,100999.52
2019-05-11T07:45:01.005Z,100994.99
2019-05-11T07:47:32.066Z,101001.39
2019-05-11T07:50:03.588Z,101004.48
2019-05-11T07:52:34.841Z,101002.59
2019-05-11T07:55:08.414Z,101004.86
2019-05-11T07:57:39.335Z,101004.12
2019-05-11T08:00:10.650Z,101003.28
2019-05-11T08:02:41.296Z,101005.70
2019-05-11T08:05:12.456Z,101013.11
2019-05-11T08:07:43.416Z,101013.63
2019-05-11T08:10:14.169Z,101019.89
2019-05-11T08:12:44.911Z,101013.01
2019-05-11T08:15:18.147Z,101014.39
2019-05-11T08:17:49.003Z,101015.06
2019-05-11T08:20:19.930Z,101015.67
2019-05-11T08:22:50.906Z,101013.92
2019-05-11T08:25:22.247Z,101013.23
2019-05-11T08:27:54.354Z,101009.99
2019-05-11T08:30:27.830Z,101011.84
2019-05-11T08:32:58.354Z,101014.14
2019-05-11T08:35:31.336Z,101005.31
2019-05-11T08:38:01.665Z,101004.56
2019-05-11T08:40:32.728Z,101009.86
2019-05-11T08:43:03.584Z,101014.31
2019-05-11T08:45:34.523Z,101015.73
2019-05-11T08:48:08.155Z,101023.70
2019-05-11T08:50:43.806Z,101026.87
2019-05-11T08:53:14.866Z,101029.48
2019-05-11T08:55:48.408Z,101025.19
2019-05-11T08:58:19.363Z,101029.76
2019-05-11T09:00:50.723Z,101028.77
2019-05-11T09:03:21.568Z,101039.30
2019-05-11T09:05:52.539Z,101033.93
2019-05-11T09:08:23.598Z,101033.44
2019-05-11T09:10:54.553Z,101034.20
2019-05-11T09:13:27.689Z,101032.35
2019-05-11T09:15:58.820Z,101030.48
2019-05-11T09:18:29.973Z,101035.94
2019-05-11T09:21:00.831Z,101039.05
2019-05-11T09:23:37.310Z,101043.05
2019-05-11T09:26:04.073Z,101039.84
2019-05-11T09:28:35.031Z,101040.89
2019-05-11T09:31:08.331Z,101038.22
2019-05-11T09:33:38.771Z,101041.36
2019-05-11T09:36:09.648Z,101043.34
2019-05-11T09:38:40.831Z,101039.97
2019-05-11T09:41:12.213Z,101038.88
2019-05-11T09:43:43.406Z,101034.40
2019-05-11T09:46:14.300Z,101037.36
2019-05-11T09:48:45.274Z,101038.02
2019-05-11T09:51:18.410Z,101045.36
2019-05-11T09:53:49.440Z,101042.69
2019-05-11T09:56:20.384Z,101044.89
2019-05-11T09:58:51.358Z,101051.47
2019-05-11T10:01:22.218Z,101048.20
2019-05-11T10:03:53.276Z,101055.55
2019-05-11T10:06:24.232Z,101056.30
2019-05-11T10:08:55.093Z,101051.55
2019-05-11T10:11:28.101Z,101050.82
2019-05-11T10:13:58.322Z,101052.36
2019-05-11T10:16:29.193Z,101053.27
2019-05-11T10:19:00.235Z,101058.32
2019-05-11T10:21:31.319Z,101056.22
2019-05-11T10:24:02.357Z,101054.94
2019-05-11T10:26:33.336Z,101053.39
2019-05-11T10:29:04.193Z,101058.98
2019-05-11T10:31:35.252Z,101055.95
2019-05-11T10:34:08.465Z,101050.65
2019-05-11T10:36:38.752Z,101059.59
2019-05-11T10:39:10.173Z,101066.61
2019-05-11T10:41:41.111Z,101063.19
2019-05-11T10:44:12.088Z,101059.08
2019-05-11T10:46:42.941Z,101065.95
2019-05-11T10:49:14.005Z,101059.14
2019-05-11T10:51:45.068Z,101067.04
2019-05-11T10:54:18.507Z,101067.53
2019-05-11T10:56:48.602Z,101067.91
2019-05-11T10:59:19.584Z,101064.50
2019-05-11T11:01:50.517Z,101062.53
2019-05-11T11:04:21.475Z,101066.94
2019-05-11T11:06:52.333Z,101067.78
2019-05-11T11:09:23.409Z,101069.30
2019-05-11T11:11:54.248Z,101072.98
2019-05-11T11:14:25.126Z,101077.36
2019-05-11T11:16:58.335Z,101069.13
2019-05-11T11:19:29.140Z,101079.16
2019-05-11T11:22:28.574Z,101079.00
2019-05-11T11:24:32.314Z,101076.95
2019-05-11T11:27:03.066Z,101079.77
2019-05-11T11:29:34.147Z,101088.04
2019-05-11T11:32:05.133Z,101082.41
2019-05-11T11:34:38.232Z,101080.15
2019-05-11T11:37:08.758Z,101081.11
2019-05-11T11:39:39.816Z,101089.39
2019-05-11T11:42:10.659Z,101096.44
2019-05-11T11:44:41.859Z,101105.11
2019-05-11T11:47:12.591Z,101102.02
2019-05-11T11:49:43.539Z,101110.25
2019-05-11T11:52:14.409Z,101114.47
2019-05-11T11:54:45.452Z,101121.88
2019-05-11T11:57:18.185Z,101115.84
2019-05-11T11:59:48.818Z,101128.12
2019-05-11T12:02:19.877Z,101129.20
2019-05-11T12:04:50.735Z,101124.35
2019-05-11T12:07:21.677Z,101134.00
2019-05-11T12:09:52.654Z,101134.48
2019-05-11T12:12:23.713Z,101139.47
2019-05-11T12:14:54.682Z,101144.28
2019-05-11T12:17:28.548Z,101133.19
2019-05-11T12:19:59.688Z,101139.67
2019-05-11T12:22:30.289Z,101136.55
2019-05-11T12:25:02.067Z,101138.39
2019-05-11T12:27:32.633Z,101138.23
2019-05-11T12:30:04.424Z,101129.72
2019-05-11T12:32:39.660Z,101133.70
2019-05-11T12:35:10.194Z,101136.35
2019-05-11T12:37:41.272Z,101135.83
2019-05-11T12:40:13.388Z,101141.42
2019-05-11T12:42:44.147Z,101140.27
2019-05-11T12:45:15.302Z,101143.71
2019-05-11T12:47:48.001Z,101142.92
2019-05-11T12:50:19.846Z,101147.87
2019-05-11T12:52:51.316Z,101148.55
2019-05-11T12:55:22.798Z,101148.98
2019-05-11T12:57:54.202Z,101156.26
2019-05-11T13:00:30.448Z,101157.54
2019-05-11T13:02:58.764Z,101155.34
2019-05-11T13:05:30.308Z,101161.81
2019-05-11T13:08:02.109Z,101161.36
2019-05-11T13:10:33.247Z,101165.29
2019-05-11T13:13:04.102Z,101157.42
2019-05-11T13:15:35.058Z,101158.36
2019-05-11T13:18:08.223Z,101159.98
2019-05-11T13:20:38.291Z,101161.52
2019-05-11T13:23:09.262Z,101155.89
2019-05-11T13:25:40.219Z,101163.97
2019-05-11T13:28:11.164Z,101154.02
2019-05-11T13:30:42.121Z,101156.70
2019-05-11T13:33:13.002Z,101157.83
2019-05-11T13:35:44.053Z,101149.64
2019-05-11T13:38:15.014Z,101150.56
2019-05-11T13:40:45.867Z,101144.28
2019-05-11T13:43:18.866Z,101152.55
2019-05-11T13:45:49.201Z,101147.56
2019-05-11T13:48:20.061Z,101155.41
2019-05-11T13:50:51.034Z,101159.59
2019-05-11T13:53:23.219Z,101157.01
2019-05-11T13:55:54.484Z,101164.34
2019-05-11T13:58:25.115Z,101154.38
2019-05-11T14:00:58.317Z,101156.34
2019-05-11T14:03:28.380Z,101154.88
2019-05-11T14:05:59.426Z,101158.92
2019-05-11T14:08:30.503Z,101153.91
2019-05-11T14:11:01.261Z,101159.28
2019-05-11T14:13:33.031Z,101160.97
2019-05-11T14:16:04.075Z,101160.72
2019-05-11T14:18:35.153Z,101164.05
2019-05-11T14:21:08.017Z,101170.71
2019-05-11T14:23:38.923Z,101161.94
2019-05-11T14:26:09.853Z,101169.81
2019-05-11T14:28:40.933Z,101166.42
2019-05-11T14:31:11.806Z,101171.59
2019-05-11T14:33:43.050Z,101163.59
2019-05-11T14:36:14.009Z,101166.80
2019-05-11T14:38:45.069Z,101168.81
2019-05-11T14:41:18.100Z,101172.23
2019-05-11T14:43:49.116Z,101163.13
2019-05-11T14:46:21.422Z,101164.94
2019-05-11T14:48:52.158Z,101168.11
2019-05-11T14:51:23.235Z,101170.88
2019-05-11T14:53:58.905Z,101165.28
2019-05-11T14:56:27.992Z,101180.70
2019-05-11T14:58:58.992Z,101173.22
2019-05-11T15:01:29.817Z,101180.16
2019-05-11T15:04:00.699Z,101173.50
2019-05-11T15:06:31.649Z,101171.02
2019-05-11T15:09:02.708Z,101176.80
2019-05-11T15:11:33.650Z,101171.14
2019-05-11T15:14:04.625Z,101176.22
2019-05-11T15:16:38.153Z,101169.30
2019-05-11T15:19:08.316Z,101168.38
2019-05-11T15:21:39.345Z,101169.44
2019-05-11T15:24:10.301Z,101172.77
2019-05-11T15:26:41.359Z,101173.64
2019-05-11T15:29:12.198Z,101176.10
2019-05-11T15:31:43.073Z,101173.03
2019-05-11T15:34:14.131Z,101176.77
2019-05-11T15:36:45.236Z,101174.42
2019-05-11T15:39:18.189Z,101174.91
2019-05-11T15:41:48.951Z,101183.12
2019-05-11T15:44:19.896Z,101180.20
2019-05-11T15:46:50.867Z,101189.17
2019-05-11T15:49:21.734Z,101182.00
2019-05-11T15:51:52.785Z,101183.70
2019-05-11T15:54:23.741Z,101193.18
2019-05-11T15:56:54.377Z,101191.05
2019-05-11T15:59:25.353Z,101193.84
2019-05-11T16:01:58.136Z,101194.76
2019-05-11T16:04:29.006Z,101200.41
2019-05-11T16:07:00.108Z,101197.61
2019-05-11T16:09:31.130Z,101197.27
2019-05-11T16:12:02.096Z,101197.39
2019-05-11T16:14:32.944Z,101201.52
2019-05-11T16:17:04.005Z,101203.79
2019-05-11T16:19:34.964Z,101207.01
2019-05-11T16:22:10.074Z,101211.93
2019-05-11T16:24:40.952Z,101215.48
2019-05-11T16:27:12.034Z,101220.98
2019-05-11T16:29:42.887Z,101213.33
2019-05-11T16:32:13.932Z,101207.03
2019-05-11T16:34:44.906Z,101216.86
2019-05-11T16:37:18.234Z,101219.70
2019-05-11T16:39:49.533Z,101215.05
2019-05-11T16:42:20.340Z,101216.48
2019-05-11T16:44:51.195Z,101225.03
2019-05-11T16:47:22.239Z,101229.23
2019-05-11T16:49:53.095Z,101231.21
2019-05-11T16:52:24.057Z,101230.41
2019-05-11T16:54:55.028Z,101237.67
2019-05-11T16:57:26.402Z,101234.46
2019-05-11T16:59:58.470Z,101239.50
2019-05-11T17:02:30.489Z,101243.56
2019-05-11T17:05:01.351Z,101242.84
2019-05-11T17:07:32.362Z,101244.78
2019-05-11T17:10:04.055Z,101244.30
2019-05-11T17:12:34.788Z,101241.89
2019-05-11T17:15:10.053Z,101248.30
2019-05-11T17:17:40.609Z,101244.17
2019-05-11T17:20:13.203Z,101245.34
2019-05-11T17:22:47.973Z,101246.84
2019-05-11T17:25:19.575Z,101249.54
2019-05-11T17:27:50.683Z,101254.48
2019-05-11T17:30:21.933Z,101256.02
2019-05-11T17:32:52.599Z,101255.76
2019-05-11T17:35:23.540Z,101260.35
2019-05-11T17:37:54.516Z,101266.45
2019-05-11T17:40:25.372Z,101272.03
2019-05-11T17:42:58.502Z,101273.16
2019-05-11T17:45:28.719Z,101277.86
2019-05-11T17:47:59.562Z,101281.53
2019-05-11T17:50:30.647Z,101283.58
2019-05-11T17:53:01.478Z,101284.63
2019-05-11T17:55:32.450Z,101287.66
2019-05-11T17:58:03.233Z,101284.12
2019-05-11T18:00:34.147Z,101288.67
2019-05-11T18:03:07.386Z,101295.77
2019-05-11T18:05:37.946Z,101293.11
2019-05-11T18:08:08.937Z,101296.03
2019-05-11T18:10:40.029Z,101290.33
2019-05-11T18:13:11.002Z,101302.37
2019-05-11T18:15:42.065Z,101309.83
2019-05-11T18:18:13.021Z,101307.05
2019-05-11T18:20:44.084Z,101307.80
2019-05-11T18:23:15.040Z,101314.63
2019-05-11T18:25:47.987Z,101314.72
2019-05-11T18:28:18.371Z,101323.12
2019-05-11T18:30:49.228Z,101322.23
2019-05-11T18:33:20.353Z,101319.67
2019-05-11T18:35:51.366Z,101324.10
2019-05-11T18:38:22.412Z,101323.64
2019-05-11T18:40:53.468Z,101329.14
2019-05-11T18:43:27.982Z,101329.36
2019-05-11T18:46:01.135Z,101318.84
2019-05-11T18:48:32.176Z,101324.61
2019-05-11T18:51:03.057Z,101324.31
2019-05-11T18:53:34.091Z,101324.80
2019-05-11T18:56:05.154Z,101317.33
2019-05-11T18:58:38.250Z,101319.33
2019-05-11T19:01:10.138Z,101324.80
2019-05-11T19:03:42.343Z,101326.08
2019-05-11T19:06:14.116Z,101324.66
2019-05-11T19:08:45.075Z,101324.48
2019-05-11T19:11:18.091Z,101320.84
2019-05-11T19:13:48.304Z,101326.30
2019-05-11T19:16:19.282Z,101335.13
2019-05-11T19:18:50.116Z,101326.59
2019-05-11T19:21:21.200Z,101334.20
2019-05-11T19:23:52.259Z,101331.02
2019-05-11T19:26:22.998Z,101333.73
2019-05-11T19:28:53.867Z,101330.84
2019-05-11T19:31:25.164Z,101327.20
2019-05-11T19:33:58.023Z,101334.73
2019-05-11T19:36:28.053Z,101340.23
2019-05-11T19:38:59.219Z,101339.25
2019-05-11T19:41:30.300Z,101345.89
2019-05-11T19:44:01.936Z,101348.33
2019-05-11T19:46:32.972Z,101352.53
2019-05-11T19:49:03.565Z,101355.31
2019-05-11T19:51:34.523Z,101353.53
2019-05-11T19:54:05.292Z,101358.61
2019-05-11T19:56:38.317Z,101351.52
2019-05-11T19:59:08.845Z,101354.58
2019-05-11T20:01:39.701Z,101351.80
2019-05-11T20:04:10.764Z,101355.72
2019-05-11T20:06:41.826Z,101351.23
2019-05-11T20:09:12.985Z,101356.66
2019-05-11T20:11:44.047Z,101365.63
2019-05-11T20:14:14.884Z,101354.01
2019-05-11T20:16:47.789Z,101358.92
2019-05-11T20:19:19.089Z,101355.09
2019-05-11T20:21:50.231Z,101360.28
2019-05-11T20:24:21.087Z,101361.17
2019-05-11T20:26:53.695Z,101365.59
2019-05-11T20:29:24.743Z,101365.53
2019-05-11T20:31:57.768Z,101358.82
2019-05-11T20:34:28.999Z,101367.23
2019-05-11T20:36:59.664Z,101363.06
2019-05-11T20:39:30.622Z,101370.53
2019-05-11T20:42:01.461Z,101373.18
2019-05-11T20:44:32.639Z,101369.63
2019-05-11T20:47:03.600Z,101368.97
2019-05-11T20:49:34.455Z,101364.70
2019-05-11T20:52:05.731Z,101360.91
2019-05-11T20:54:38.473Z,101362.05
2019-05-11T20:57:09.048Z,101366.80
2019-05-11T20:59:40.027Z,101369.78
2019-05-11T21:02:10.884Z,101364.22
2019-05-11T21:04:41.945Z,101367.64
2019-05-11T21:07:12.903Z,101369.58
2019-05-11T21:09:43.961Z,101379.26
2019-05-11T21:12:14.924Z,101377.04
2019-05-11T21:14:45.758Z,101378.73
2019-05-11T21:17:18.158Z,101389.49
2019-05-11T21:19:49.134Z,101382.55
2019-05-11T21:22:19.966Z,101384.77
2019-05-11T21:24:50.838Z,101383.86
2019-05-11T21:27:21.899Z,101378.53
2019-05-11T21:29:52.859Z,101375.84
2019-05-11T21:32:23.698Z,101382.87
2019-05-11T21:34:54.879Z,101382.22
2019-05-11T21:37:27.773Z,101382.81
2019-05-11T21:39:58.018Z,101388.99
2019-05-11T21:42:29.086Z,101389.22
2019-05-11T21:45:00.144Z,101386.78
2019-05-11T21:47:30.981Z,101392.87
2019-05-11T21:50:02.078Z,101394.00
2019-05-11T21:52:32.709Z,101400.20
2019-05-11T21:55:03.548Z,101399.09
2019-05-11T21:57:34.506Z,101398.59
2019-05-11T22:00:08.778Z,101400.75
2019-05-11T22:02:39.901Z,101395.90
2019-05-11T22:05:10.911Z,101393.17
2019-05-11T22:07:42.040Z,101393.34
2019-05-11T22:10:14.838Z,101394.36
2019-05-11T22:12:45.985Z,101393.59
2019-05-11T22:15:17.066Z,101387.33
2019-05-11T22:17:48.154Z,101382.41
2019-05-11T22:20:19.182Z,101391.02
2019-05-11T22:22:50.250Z,101382.27
2019-05-11T22:25:21.202Z,101381.42
2019-05-11T22:27:52.061Z,101371.19
2019-05-11T22:30:23.128Z,101379.05
2019-05-11T22:32:54.078Z,101384.01
2019-05-11T22:35:25.138Z,101387.36
2019-05-11T22:37:57.832Z,101385.86
2019-05-11T22:40:28.398Z,101382.18
2019-05-11T22:43:01.240Z,101379.81
2019-05-11T22:45:31.835Z,101373.39
2019-05-11T22:48:02.690Z,101380.17
2019-05-11T22:50:33.735Z,101381.92
2019-05-11T22:53:04.300Z,101381.63
2019-05-11T22:55:35.156Z,101385.78
2019-05-11T22:58:08.289Z,101378.36
2019-05-11T23:00:44.029Z,101382.92
2019-05-11T23:03:14.987Z,101377.14
2019-05-11T23:05:47.613Z,101374.28
2019-05-11T23:08:18.325Z,101381.51
2019-05-11T23:10:49.294Z,101379.83
2019-05-11T23:13:20.151Z,101379.06
2019-05-11T23:15:51.194Z,101383.42
2019-05-11T23:18:22.165Z,101391.88
2019-05-11T23:20:53.026Z,101385.08
2019-05-11T23:23:23.965Z,101390.34
2019-05-11T23:25:54.942Z,101389.75
2019-05-11T23:28:25.884Z,101394.53
2019-05-11T23:30:58.249Z,101391.91
2019-05-11T23:33:29.680Z,101401.22
2019-05-11T23:36:00.617Z,101400.98
2019-05-11T23:38:31.571Z,101394.69
2019-05-11T23:41:02.663Z,101394.54
2019-05-11T23:43:33.595Z,101394.19
2019-05-11T23:46:04.652Z,101392.86
2019-05-11T23:48:35.653Z,101393.37
2019-05-11T23:51:08.763Z,101398.10
2019-05-11T23:53:38.905Z,101401.00
2019-05-11T23:56:09.900Z,101403.07
2019-05-11T23:58:40.977Z,101405.95
